sensor_id;sensor_type;location;lat;lon;timestamp;P1;durP1;ratioP1;P2;durP2;ratioP2
4274;SDS011;2151;50.988;11.068;2023-01-01T00:01:39;129.53;;;14.43;;
4274;SDS011;2151;50.988;11.068;2023-01-01T00:04:09;119.73;;;8.40;;
4274;SDS011;2151;50.988;11.068;2023-01-01T00:06:38;120.80;;;8.67;;
4274;SDS011;2151;50.988;11.068;2023-01-01T00:09:04;120.90;;;8.07;;
4274;SDS011;2151;50.988;11.068;2023-01-01T00:11:50;119.60;;;7.03;;
4274;SDS011;2151;50.988;11.068;2023-01-01T00:14:17;120.47;;;8.10;;
4274;SDS011;2151;50.988;11.068;2023-01-01T00:16:44;120.10;;;7.87;;
4274;SDS011;2151;50.988;11.068;2023-01-01T00:19:11;119.40;;;7.23;;
4274;SDS011;2151;50.988;11.068;2023-01-01T00:21:37;120.00;;;7.77;;
4274;SDS011;2151;50.988;11.068;2023-01-01T00:24:05;120.00;;;7.27;;
4274;SDS011;2151;50.988;11.068;2023-01-01T00:26:32;120.97;;;7.90;;
4274;SDS011;2151;50.988;11.068;2023-01-01T00:29:01;119.77;;;7.50;;
4274;SDS011;2151;50.988;11.068;2023-01-01T00:31:27;118.97;;;7.03;;
4274;SDS011;2151;50.988;11.068;2023-01-01T00:33:54;120.10;;;7.40;;
4274;SDS011;2151;50.988;11.068;2023-01-01T00:36:22;120.00;;;6.87;;
4274;SDS011;2151;50.988;11.068;2023-01-01T00:38:50;120.67;;;8.00;;
4274;SDS011;2151;50.988;11.068;2023-01-01T00:41:17;119.63;;;6.90;;
4274;SDS011;2151;50.988;11.068;2023-01-01T00:43:44;119.67;;;6.90;;
4274;SDS011;2151;50.988;11.068;2023-01-01T00:46:11;119.83;;;7.80;;
4274;SDS011;2151;50.988;11.068;2023-01-01T00:48:38;119.87;;;7.60;;
4274;SDS011;2151;50.988;11.068;2023-01-01T00:51:05;119.57;;;7.27;;
4274;SDS011;2151;50.988;11.068;2023-01-01T00:53:32;120.77;;;7.23;;
4274;SDS011;2151;50.988;11.068;2023-01-01T00:55:59;120.00;;;7.13;;
4274;SDS011;2151;50.988;11.068;2023-01-01T00:58:25;120.20;;;7.60;;
4274;SDS011;2151;50.988;11.068;2023-01-01T01:00:52;119.77;;;7.27;;
4274;SDS011;2151;50.988;11.068;2023-01-01T01:03:20;119.40;;;7.30;;
4274;SDS011;2151;50.988;11.068;2023-01-01T01:06:18;120.30;;;7.60;;
4274;SDS011;2151;50.988;11.068;2023-01-01T01:08:44;119.60;;;6.50;;
4274;SDS011;2151;50.988;11.068;2023-01-01T01:11:15;118.57;;;6.43;;
4274;SDS011;2151;50.988;11.068;2023-01-01T01:13:45;119.07;;;6.30;;
4274;SDS011;2151;50.988;11.068;2023-01-01T01:16:14;119.50;;;6.53;;
4274;SDS011;2151;50.988;11.068;2023-01-01T01:18:41;118.93;;;6.27;;
4274;SDS011;2151;50.988;11.068;2023-01-01T01:21:08;118.97;;;6.67;;
4274;SDS011;2151;50.988;11.068;2023-01-01T01:23:35;119.80;;;6.90;;
4274;SDS011;2151;50.988;11.068;2023-01-01T01:26:21;119.17;;;6.17;;
4274;SDS011;2151;50.988;11.068;2023-01-01T01:28:49;118.80;;;6.27;;
4274;SDS011;2151;50.988;11.068;2023-01-01T01:31:17;118.87;;;5.87;;
4274;SDS011;2151;50.988;11.068;2023-01-01T01:33:45;119.07;;;6.67;;
4274;SDS011;2151;50.988;11.068;2023-01-01T01:36:13;119.40;;;6.57;;
4274;SDS011;2151;50.988;11.068;2023-01-01T01:38:40;119.27;;;5.90;;
4274;SDS011;2151;50.988;11.068;2023-01-01T01:41:07;119.10;;;6.03;;
4274;SDS011;2151;50.988;11.068;2023-01-01T01:43:52;119.30;;;6.23;;
4274;SDS011;2151;50.988;11.068;2023-01-01T01:46:33;119.70;;;6.60;;
4274;SDS011;2151;50.988;11.068;2023-01-01T01:49:05;118.80;;;6.30;;
4274;SDS011;2151;50.988;11.068;2023-01-01T01:51:39;119.40;;;5.97;;
4274;SDS011;2151;50.988;11.068;2023-01-01T01:54:07;119.33;;;5.70;;
4274;SDS011;2151;50.988;11.068;2023-01-01T01:56:41;119.00;;;6.10;;
4274;SDS011;2151;50.988;11.068;2023-01-01T01:59:31;119.10;;;6.17;;
4274;SDS011;2151;50.988;11.068;2023-01-01T02:01:58;119.63;;;6.27;;
4274;SDS011;2151;50.988;11.068;2023-01-01T02:04:26;118.97;;;6.13;;
4274;SDS011;2151;50.988;11.068;2023-01-01T02:06:52;118.87;;;6.07;;
4274;SDS011;2151;50.988;11.068;2023-01-01T02:09:20;118.40;;;6.40;;
4274;SDS011;2151;50.988;11.068;2023-01-01T02:11:47;119.50;;;6.03;;
4274;SDS011;2151;50.988;11.068;2023-01-01T02:14:13;118.97;;;6.30;;
4274;SDS011;2151;50.988;11.068;2023-01-01T02:19:11;119.67;;;6.80;;
4274;SDS011;2151;50.988;11.068;2023-01-01T02:27:06;119.20;;;6.13;;
4274;SDS011;2151;50.988;11.068;2023-01-01T02:35:29;119.20;;;5.80;;
4274;SDS011;2151;50.988;11.068;2023-01-01T02:41:25;119.23;;;6.00;;
4274;SDS011;2151;50.988;11.068;2023-01-01T02:43:54;119.10;;;6.13;;
4274;SDS011;2151;50.988;11.068;2023-01-01T02:46:20;120.37;;;6.80;;
4274;SDS011;2151;50.988;11.068;2023-01-01T02:48:47;119.07;;;6.03;;
4274;SDS011;2151;50.988;11.068;2023-01-01T02:53:52;119.10;;;5.97;;
4274;SDS011;2151;50.988;11.068;2023-01-01T02:56:32;119.60;;;6.10;;
4274;SDS011;2151;50.988;11.068;2023-01-01T03:02:22;119.00;;;5.67;;
4274;SDS011;2151;50.988;11.068;2023-01-01T03:07:48;118.80;;;5.50;;
4274;SDS011;2151;50.988;11.068;2023-01-01T03:10:43;119.20;;;5.67;;
4274;SDS011;2151;50.988;11.068;2023-01-01T03:21:17;119.10;;;5.43;;
4274;SDS011;2151;50.988;11.068;2023-01-01T03:23:47;118.80;;;5.30;;
4274;SDS011;2151;50.988;11.068;2023-01-01T03:26:15;119.10;;;6.00;;
4274;SDS011;2151;50.988;11.068;2023-01-01T03:28:43;118.67;;;5.73;;
4274;SDS011;2151;50.988;11.068;2023-01-01T03:31:14;121.37;;;5.90;;
4274;SDS011;2151;50.988;11.068;2023-01-01T03:33:51;118.47;;;5.63;;
4274;SDS011;2151;50.988;11.068;2023-01-01T03:36:23;119.70;;;6.20;;
4274;SDS011;2151;50.988;11.068;2023-01-01T03:38:54;119.27;;;6.07;;
4274;SDS011;2151;50.988;11.068;2023-01-01T03:46:38;118.80;;;5.37;;
4274;SDS011;2151;50.988;11.068;2023-01-01T03:49:06;119.27;;;5.50;;
4274;SDS011;2151;50.988;11.068;2023-01-01T03:54:24;118.30;;;5.73;;
4274;SDS011;2151;50.988;11.068;2023-01-01T04:03:03;118.37;;;5.63;;
4274;SDS011;2151;50.988;11.068;2023-01-01T04:05:30;119.00;;;5.50;;
4274;SDS011;2151;50.988;11.068;2023-01-01T04:07:59;119.50;;;5.90;;
4274;SDS011;2151;50.988;11.068;2023-01-01T04:10:27;120.17;;;6.50;;
4274;SDS011;2151;50.988;11.068;2023-01-01T04:12:56;119.07;;;5.87;;
4274;SDS011;2151;50.988;11.068;2023-01-01T04:15:24;118.70;;;5.43;;
4274;SDS011;2151;50.988;11.068;2023-01-01T04:17:52;119.27;;;5.87;;
4274;SDS011;2151;50.988;11.068;2023-01-01T04:20:19;127.40;;;10.93;;
4274;SDS011;2151;50.988;11.068;2023-01-01T04:22:46;118.80;;;5.40;;
4274;SDS011;2151;50.988;11.068;2023-01-01T04:25:13;119.30;;;5.90;;
4274;SDS011;2151;50.988;11.068;2023-01-01T04:27:40;118.77;;;5.87;;
4274;SDS011;2151;50.988;11.068;2023-01-01T04:30:07;119.20;;;5.60;;
4274;SDS011;2151;50.988;11.068;2023-01-01T04:32:36;119.43;;;5.73;;
4274;SDS011;2151;50.988;11.068;2023-01-01T04:35:03;119.13;;;5.83;;
4274;SDS011;2151;50.988;11.068;2023-01-01T04:37:31;119.37;;;5.40;;
4274;SDS011;2151;50.988;11.068;2023-01-01T04:39:57;119.50;;;5.90;;
4274;SDS011;2151;50.988;11.068;2023-01-01T04:42:24;119.17;;;5.57;;
4274;SDS011;2151;50.988;11.068;2023-01-01T04:44:50;119.37;;;5.53;;
4274;SDS011;2151;50.988;11.068;2023-01-01T04:47:17;120.17;;;6.80;;
4274;SDS011;2151;50.988;11.068;2023-01-01T04:49:43;119.30;;;5.70;;
4274;SDS011;2151;50.988;11.068;2023-01-01T04:52:10;119.67;;;5.70;;
4274;SDS011;2151;50.988;11.068;2023-01-01T04:54:36;118.90;;;5.60;;
4274;SDS011;2151;50.988;11.068;2023-01-01T04:57:03;119.43;;;5.50;;
4274;SDS011;2151;50.988;11.068;2023-01-01T04:59:30;119.17;;;5.43;;
4274;SDS011;2151;50.988;11.068;2023-01-01T05:01:57;119.40;;;5.63;;
4274;SDS011;2151;50.988;11.068;2023-01-01T05:04:23;119.17;;;5.63;;
4274;SDS011;2151;50.988;11.068;2023-01-01T05:06:50;119.80;;;6.47;;
4274;SDS011;2151;50.988;11.068;2023-01-01T05:09:16;119.20;;;5.60;;
4274;SDS011;2151;50.988;11.068;2023-01-01T05:11:43;118.87;;;5.43;;
4274;SDS011;2151;50.988;11.068;2023-01-01T05:14:09;118.77;;;5.60;;
4274;SDS011;2151;50.988;11.068;2023-01-01T05:16:37;119.17;;;5.70;;
4274;SDS011;2151;50.988;11.068;2023-01-01T05:19:04;119.03;;;5.10;;
4274;SDS011;2151;50.988;11.068;2023-01-01T05:21:32;119.20;;;5.57;;
4274;SDS011;2151;50.988;11.068;2023-01-01T05:24:01;119.20;;;5.70;;
4274;SDS011;2151;50.988;11.068;2023-01-01T05:26:30;118.87;;;5.40;;
4274;SDS011;2151;50.988;11.068;2023-01-01T05:28:59;118.60;;;5.40;;
4274;SDS011;2151;50.988;11.068;2023-01-01T05:31:27;119.47;;;5.97;;
4274;SDS011;2151;50.988;11.068;2023-01-01T05:33:55;119.07;;;5.67;;
4274;SDS011;2151;50.988;11.068;2023-01-01T05:36:29;119.73;;;6.10;;
4274;SDS011;2151;50.988;11.068;2023-01-01T05:39:04;119.33;;;5.77;;
4274;SDS011;2151;50.988;11.068;2023-01-01T05:41:31;119.63;;;5.50;;
4274;SDS011;2151;50.988;11.068;2023-01-01T05:44:01;118.97;;;5.87;;
4274;SDS011;2151;50.988;11.068;2023-01-01T05:46:32;119.13;;;5.53;;
4274;SDS011;2151;50.988;11.068;2023-01-01T05:48:59;118.63;;;5.47;;
4274;SDS011;2151;50.988;11.068;2023-01-01T05:51:26;119.57;;;5.60;;
4274;SDS011;2151;50.988;11.068;2023-01-01T05:53:53;119.17;;;5.67;;
4274;SDS011;2151;50.988;11.068;2023-01-01T05:56:20;118.90;;;5.50;;
4274;SDS011;2151;50.988;11.068;2023-01-01T05:58:47;118.97;;;5.43;;
4274;SDS011;2151;50.988;11.068;2023-01-01T06:04:09;119.50;;;5.67;;
4274;SDS011;2151;50.988;11.068;2023-01-01T06:06:36;118.80;;;5.33;;
4274;SDS011;2151;50.988;11.068;2023-01-01T06:09:03;118.87;;;5.63;;
4274;SDS011;2151;50.988;11.068;2023-01-01T06:11:30;117.90;;;5.60;;
4274;SDS011;2151;50.988;11.068;2023-01-01T06:13:58;119.60;;;5.77;;
4274;SDS011;2151;50.988;11.068;2023-01-01T06:16:26;119.77;;;5.53;;
4274;SDS011;2151;50.988;11.068;2023-01-01T06:18:56;119.40;;;5.53;;
4274;SDS011;2151;50.988;11.068;2023-01-01T06:21:23;120.07;;;5.83;;
4274;SDS011;2151;50.988;11.068;2023-01-01T06:23:50;119.87;;;6.07;;
4274;SDS011;2151;50.988;11.068;2023-01-01T06:26:18;119.23;;;5.30;;
4274;SDS011;2151;50.988;11.068;2023-01-01T06:28:47;119.77;;;5.50;;
4274;SDS011;2151;50.988;11.068;2023-01-01T06:31:14;118.87;;;5.67;;
4274;SDS011;2151;50.988;11.068;2023-01-01T06:33:42;119.30;;;6.10;;
4274;SDS011;2151;50.988;11.068;2023-01-01T06:36:09;119.10;;;5.73;;
4274;SDS011;2151;50.988;11.068;2023-01-01T06:38:38;119.37;;;5.40;;
4274;SDS011;2151;50.988;11.068;2023-01-01T06:41:07;120.10;;;6.03;;
4274;SDS011;2151;50.988;11.068;2023-01-01T06:43:36;119.17;;;5.77;;
4274;SDS011;2151;50.988;11.068;2023-01-01T06:46:04;119.43;;;5.50;;
4274;SDS011;2151;50.988;11.068;2023-01-01T06:48:32;119.93;;;6.10;;
4274;SDS011;2151;50.988;11.068;2023-01-01T06:51:43;119.60;;;5.97;;
4274;SDS011;2151;50.988;11.068;2023-01-01T06:53:51;118.87;;;5.47;;
4274;SDS011;2151;50.988;11.068;2023-01-01T06:56:19;118.03;;;5.80;;
4274;SDS011;2151;50.988;11.068;2023-01-01T06:58:46;118.50;;;5.60;;
4274;SDS011;2151;50.988;11.068;2023-01-01T07:01:16;119.13;;;5.83;;
4274;SDS011;2151;50.988;11.068;2023-01-01T07:03:49;118.73;;;6.10;;
4274;SDS011;2151;50.988;11.068;2023-01-01T07:06:18;118.43;;;5.67;;
4274;SDS011;2151;50.988;11.068;2023-01-01T07:08:44;118.90;;;5.73;;
4274;SDS011;2151;50.988;11.068;2023-01-01T07:11:11;119.00;;;5.73;;
4274;SDS011;2151;50.988;11.068;2023-01-01T07:13:38;119.60;;;5.67;;
4274;SDS011;2151;50.988;11.068;2023-01-01T07:16:04;119.67;;;6.13;;
4274;SDS011;2151;50.988;11.068;2023-01-01T07:18:38;120.20;;;5.50;;
4274;SDS011;2151;50.988;11.068;2023-01-01T07:21:06;119.70;;;5.80;;
4274;SDS011;2151;50.988;11.068;2023-01-01T07:23:55;119.30;;;5.37;;
4274;SDS011;2151;50.988;11.068;2023-01-01T07:26:25;119.13;;;5.60;;
4274;SDS011;2151;50.988;11.068;2023-01-01T07:28:52;119.63;;;5.63;;
4274;SDS011;2151;50.988;11.068;2023-01-01T07:31:19;119.37;;;5.70;;
4274;SDS011;2151;50.988;11.068;2023-01-01T07:33:46;118.70;;;5.87;;
4274;SDS011;2151;50.988;11.068;2023-01-01T07:36:13;119.60;;;5.47;;
4274;SDS011;2151;50.988;11.068;2023-01-01T07:38:39;119.13;;;5.57;;
4274;SDS011;2151;50.988;11.068;2023-01-01T07:41:06;119.80;;;5.67;;
4274;SDS011;2151;50.988;11.068;2023-01-01T07:43:32;121.10;;;6.83;;
4274;SDS011;2151;50.988;11.068;2023-01-01T07:45:59;119.43;;;5.70;;
4274;SDS011;2151;50.988;11.068;2023-01-01T07:48:26;119.70;;;5.63;;
4274;SDS011;2151;50.988;11.068;2023-01-01T07:50:53;118.93;;;5.17;;
4274;SDS011;2151;50.988;11.068;2023-01-01T07:53:20;120.00;;;6.13;;
4274;SDS011;2151;50.988;11.068;2023-01-01T07:55:46;120.07;;;5.83;;
4274;SDS011;2151;50.988;11.068;2023-01-01T07:58:13;119.47;;;5.97;;
4274;SDS011;2151;50.988;11.068;2023-01-01T08:00:40;119.70;;;5.80;;
4274;SDS011;2151;50.988;11.068;2023-01-01T08:03:06;119.83;;;5.97;;
4274;SDS011;2151;50.988;11.068;2023-01-01T08:05:33;119.67;;;5.77;;
4274;SDS011;2151;50.988;11.068;2023-01-01T08:08:01;119.80;;;5.97;;
4274;SDS011;2151;50.988;11.068;2023-01-01T08:10:27;119.50;;;5.83;;
4274;SDS011;2151;50.988;11.068;2023-01-01T08:13:03;120.27;;;5.57;;
4274;SDS011;2151;50.988;11.068;2023-01-01T08:15:31;119.80;;;5.93;;
4274;SDS011;2151;50.988;11.068;2023-01-01T08:17:59;119.47;;;5.67;;
4274;SDS011;2151;50.988;11.068;2023-01-01T08:20:27;119.47;;;5.70;;
4274;SDS011;2151;50.988;11.068;2023-01-01T08:22:55;119.17;;;5.67;;
4274;SDS011;2151;50.988;11.068;2023-01-01T08:25:28;119.27;;;5.60;;
4274;SDS011;2151;50.988;11.068;2023-01-01T08:27:54;119.40;;;5.60;;
4274;SDS011;2151;50.988;11.068;2023-01-01T08:30:21;118.90;;;5.87;;
4274;SDS011;2151;50.988;11.068;2023-01-01T08:32:47;119.33;;;5.77;;
4274;SDS011;2151;50.988;11.068;2023-01-01T08:35:14;119.17;;;5.70;;
4274;SDS011;2151;50.988;11.068;2023-01-01T08:37:40;119.40;;;6.20;;
4274;SDS011;2151;50.988;11.068;2023-01-01T08:40:08;119.57;;;5.63;;
4274;SDS011;2151;50.988;11.068;2023-01-01T08:42:36;119.17;;;5.23;;
4274;SDS011;2151;50.988;11.068;2023-01-01T08:45:03;118.50;;;5.60;;
4274;SDS011;2151;50.988;11.068;2023-01-01T08:47:30;119.60;;;5.60;;
4274;SDS011;2151;50.988;11.068;2023-01-01T08:49:56;119.83;;;5.70;;
4274;SDS011;2151;50.988;11.068;2023-01-01T08:52:23;121.33;;;5.90;;
4274;SDS011;2151;50.988;11.068;2023-01-01T08:54:49;119.30;;;5.33;;
4274;SDS011;2151;50.988;11.068;2023-01-01T08:57:16;119.40;;;5.60;;
4274;SDS011;2151;50.988;11.068;2023-01-01T08:59:42;119.10;;;6.00;;
4274;SDS011;2151;50.988;11.068;2023-01-01T09:02:10;119.43;;;5.77;;
4274;SDS011;2151;50.988;11.068;2023-01-01T09:04:37;118.67;;;5.93;;
4274;SDS011;2151;50.988;11.068;2023-01-01T09:07:04;118.93;;;5.77;;
4274;SDS011;2151;50.988;11.068;2023-01-01T09:09:30;118.57;;;5.93;;
4274;SDS011;2151;50.988;11.068;2023-01-01T09:11:57;119.60;;;5.70;;
4274;SDS011;2151;50.988;11.068;2023-01-01T09:14:29;118.07;;;5.30;;
4274;SDS011;2151;50.988;11.068;2023-01-01T09:16:56;119.17;;;5.63;;
4274;SDS011;2151;50.988;11.068;2023-01-01T09:19:22;119.17;;;5.63;;
4274;SDS011;2151;50.988;11.068;2023-01-01T09:21:49;119.00;;;5.60;;
4274;SDS011;2151;50.988;11.068;2023-01-01T09:24:16;122.40;;;5.47;;
4274;SDS011;2151;50.988;11.068;2023-01-01T09:26:43;119.30;;;6.20;;
4274;SDS011;2151;50.988;11.068;2023-01-01T09:29:10;117.57;;;5.43;;
4274;SDS011;2151;50.988;11.068;2023-01-01T09:31:38;118.57;;;5.70;;
4274;SDS011;2151;50.988;11.068;2023-01-01T09:34:04;119.77;;;5.90;;
4274;SDS011;2151;50.988;11.068;2023-01-01T09:36:31;119.43;;;6.00;;
4274;SDS011;2151;50.988;11.068;2023-01-01T09:38:58;120.00;;;6.73;;
4274;SDS011;2151;50.988;11.068;2023-01-01T09:47:28;118.77;;;5.53;;
4274;SDS011;2151;50.988;11.068;2023-01-01T09:50:24;118.53;;;5.97;;
4274;SDS011;2151;50.988;11.068;2023-01-01T09:52:55;118.80;;;5.73;;
4274;SDS011;2151;50.988;11.068;2023-01-01T09:57:52;118.67;;;6.03;;
4274;SDS011;2151;50.988;11.068;2023-01-01T10:00:19;118.97;;;5.80;;
4274;SDS011;2151;50.988;11.068;2023-01-01T10:08:46;119.57;;;6.43;;
4274;SDS011;2151;50.988;11.068;2023-01-01T10:11:34;119.70;;;7.00;;
4274;SDS011;2151;50.988;11.068;2023-01-01T10:14:04;119.63;;;6.73;;
4274;SDS011;2151;50.988;11.068;2023-01-01T10:16:41;119.90;;;7.27;;
4274;SDS011;2151;50.988;11.068;2023-01-01T10:19:47;120.20;;;7.17;;
4274;SDS011;2151;50.988;11.068;2023-01-01T10:22:19;120.27;;;8.07;;
4274;SDS011;2151;50.988;11.068;2023-01-01T10:27:22;119.07;;;7.03;;
4274;SDS011;2151;50.988;11.068;2023-01-01T10:29:50;119.97;;;7.47;;
4274;SDS011;2151;50.988;11.068;2023-01-01T10:32:27;120.20;;;8.50;;
4274;SDS011;2151;50.988;11.068;2023-01-01T10:34:56;119.97;;;7.60;;
4274;SDS011;2151;50.988;11.068;2023-01-01T10:37:23;121.10;;;9.53;;
4274;SDS011;2151;50.988;11.068;2023-01-01T10:39:49;120.10;;;8.30;;
4274;SDS011;2151;50.988;11.068;2023-01-01T10:42:16;121.37;;;9.60;;
4274;SDS011;2151;50.988;11.068;2023-01-01T10:44:43;121.20;;;9.17;;
4274;SDS011;2151;50.988;11.068;2023-01-01T10:52:28;120.83;;;9.40;;
4274;SDS011;2151;50.988;11.068;2023-01-01T10:54:59;120.87;;;9.13;;
4274;SDS011;2151;50.988;11.068;2023-01-01T10:59:53;121.60;;;10.07;;
4274;SDS011;2151;50.988;11.068;2023-01-01T11:02:21;122.97;;;11.67;;
4274;SDS011;2151;50.988;11.068;2023-01-01T11:04:50;123.07;;;13.23;;
4274;SDS011;2151;50.988;11.068;2023-01-01T11:10:06;122.57;;;12.17;;
4274;SDS011;2151;50.988;11.068;2023-01-01T11:12:37;122.50;;;11.57;;
4274;SDS011;2151;50.988;11.068;2023-01-01T11:15:32;122.03;;;10.47;;
4274;SDS011;2151;50.988;11.068;2023-01-01T11:18:03;122.83;;;12.00;;
4274;SDS011;2151;50.988;11.068;2023-01-01T11:20:37;121.87;;;11.73;;
4274;SDS011;2151;50.988;11.068;2023-01-01T11:23:50;122.17;;;11.40;;
4274;SDS011;2151;50.988;11.068;2023-01-01T11:26:01;122.47;;;11.67;;
4274;SDS011;2151;50.988;11.068;2023-01-01T11:31:26;121.70;;;10.30;;
4274;SDS011;2151;50.988;11.068;2023-01-01T11:34:00;122.47;;;12.33;;
4274;SDS011;2151;50.988;11.068;2023-01-01T11:36:29;123.10;;;12.63;;
4274;SDS011;2151;50.988;11.068;2023-01-01T11:39:20;122.93;;;13.80;;
4274;SDS011;2151;50.988;11.068;2023-01-01T11:41:49;122.33;;;11.90;;
4274;SDS011;2151;50.988;11.068;2023-01-01T11:46:49;122.40;;;12.50;;
4274;SDS011;2151;50.988;11.068;2023-01-01T11:49:20;122.80;;;12.97;;
4274;SDS011;2151;50.988;11.068;2023-01-01T11:51:49;122.27;;;11.43;;
4274;SDS011;2151;50.988;11.068;2023-01-01T11:54:23;122.97;;;12.10;;
4274;SDS011;2151;50.988;11.068;2023-01-01T11:56:55;121.77;;;10.90;;
4274;SDS011;2151;50.988;11.068;2023-01-01T11:59:27;122.90;;;12.07;;
4274;SDS011;2151;50.988;11.068;2023-01-01T12:01:58;123.50;;;13.40;;
4274;SDS011;2151;50.988;11.068;2023-01-01T12:04:38;123.30;;;14.30;;
4274;SDS011;2151;50.988;11.068;2023-01-01T12:07:08;122.67;;;13.17;;
4274;SDS011;2151;50.988;11.068;2023-01-01T12:09:39;122.57;;;12.93;;
4274;SDS011;2151;50.988;11.068;2023-01-01T12:12:12;123.57;;;13.97;;
4274;SDS011;2151;50.988;11.068;2023-01-01T12:15:06;124.70;;;14.90;;
4274;SDS011;2151;50.988;11.068;2023-01-01T12:17:52;125.23;;;16.37;;
4274;SDS011;2151;50.988;11.068;2023-01-01T12:20:36;124.97;;;16.73;;
4274;SDS011;2151;50.988;11.068;2023-01-01T12:23:04;125.00;;;16.17;;
4274;SDS011;2151;50.988;11.068;2023-01-01T12:25:35;126.67;;;18.77;;
4274;SDS011;2151;50.988;11.068;2023-01-01T12:36:09;124.17;;;14.90;;
4274;SDS011;2151;50.988;11.068;2023-01-01T12:41:39;122.93;;;12.93;;
4274;SDS011;2151;50.988;11.068;2023-01-01T12:52:43;123.93;;;13.70;;
4274;SDS011;2151;50.988;11.068;2023-01-01T12:58:14;124.07;;;14.20;;
4274;SDS011;2151;50.988;11.068;2023-01-01T13:03:48;123.47;;;13.70;;
4274;SDS011;2151;50.988;11.068;2023-01-01T13:09:20;122.60;;;13.23;;
4274;SDS011;2151;50.988;11.068;2023-01-01T13:11:58;124.17;;;15.00;;
4274;SDS011;2151;50.988;11.068;2023-01-01T13:14:27;124.67;;;15.07;;
4274;SDS011;2151;50.988;11.068;2023-01-01T13:17:04;124.80;;;15.67;;
4274;SDS011;2151;50.988;11.068;2023-01-01T13:19:55;124.57;;;15.37;;
4274;SDS011;2151;50.988;11.068;2023-01-01T13:44:16;121.60;;;10.67;;
4274;SDS011;2151;50.988;11.068;2023-01-01T13:46:57;121.60;;;10.60;;
4274;SDS011;2151;50.988;11.068;2023-01-01T13:57:38;120.67;;;9.03;;
4274;SDS011;2151;50.988;11.068;2023-01-01T14:03:17;119.87;;;8.23;;
4274;SDS011;2151;50.988;11.068;2023-01-01T14:06:18;121.17;;;9.30;;
4274;SDS011;2151;50.988;11.068;2023-01-01T14:08:37;120.27;;;8.50;;
4274;SDS011;2151;50.988;11.068;2023-01-01T14:11:20;121.13;;;9.43;;
4274;SDS011;2151;50.988;11.068;2023-01-01T14:13:50;119.97;;;7.90;;
4274;SDS011;2151;50.988;11.068;2023-01-01T14:16:17;121.00;;;9.33;;
4274;SDS011;2151;50.988;11.068;2023-01-01T14:21:16;121.03;;;9.77;;
4274;SDS011;2151;50.988;11.068;2023-01-01T14:23:45;120.67;;;9.80;;
4274;SDS011;2151;50.988;11.068;2023-01-01T14:26:15;121.00;;;9.83;;
4274;SDS011;2151;50.988;11.068;2023-01-01T14:28:44;121.40;;;9.73;;
4274;SDS011;2151;50.988;11.068;2023-01-01T14:31:14;120.67;;;9.20;;
4274;SDS011;2151;50.988;11.068;2023-01-01T14:33:42;120.97;;;9.27;;
4274;SDS011;2151;50.988;11.068;2023-01-01T14:36:26;121.03;;;9.30;;
4274;SDS011;2151;50.988;11.068;2023-01-01T14:38:57;120.93;;;9.20;;
4274;SDS011;2151;50.988;11.068;2023-01-01T14:41:29;120.27;;;7.93;;
4274;SDS011;2151;50.988;11.068;2023-01-01T14:44:09;120.57;;;8.27;;
4274;SDS011;2151;50.988;11.068;2023-01-01T14:46:38;120.67;;;8.10;;
4274;SDS011;2151;50.988;11.068;2023-01-01T14:49:07;120.27;;;8.00;;
4274;SDS011;2151;50.988;11.068;2023-01-01T14:51:35;120.87;;;8.20;;
4274;SDS011;2151;50.988;11.068;2023-01-01T14:54:10;120.17;;;7.63;;
4274;SDS011;2151;50.988;11.068;2023-01-01T14:56:41;119.70;;;7.10;;
4274;SDS011;2151;50.988;11.068;2023-01-01T14:59:12;120.03;;;7.40;;
4274;SDS011;2151;50.988;11.068;2023-01-01T15:04:36;119.50;;;7.37;;
4274;SDS011;2151;50.988;11.068;2023-01-01T15:07:03;120.20;;;7.03;;
4274;SDS011;2151;50.988;11.068;2023-01-01T15:09:30;120.00;;;7.00;;
4274;SDS011;2151;50.988;11.068;2023-01-01T15:11:58;119.83;;;7.10;;
4274;SDS011;2151;50.988;11.068;2023-01-01T15:17:04;119.20;;;6.57;;
4274;SDS011;2151;50.988;11.068;2023-01-01T15:19:35;120.13;;;6.43;;
4274;SDS011;2151;50.988;11.068;2023-01-01T15:22:46;119.20;;;6.37;;
4274;SDS011;2151;50.988;11.068;2023-01-01T15:24:56;119.67;;;6.53;;
4274;SDS011;2151;50.988;11.068;2023-01-01T15:27:26;119.17;;;6.63;;
4274;SDS011;2151;50.988;11.068;2023-01-01T15:29:54;119.50;;;6.47;;
4274;SDS011;2151;50.988;11.068;2023-01-01T15:32:32;118.57;;;6.10;;
4274;SDS011;2151;50.988;11.068;2023-01-01T15:35:04;119.53;;;6.37;;
4274;SDS011;2151;50.988;11.068;2023-01-01T15:43:02;119.90;;;6.37;;
4274;SDS011;2151;50.988;11.068;2023-01-01T15:45:34;119.80;;;6.30;;
4274;SDS011;2151;50.988;11.068;2023-01-01T15:53:23;119.60;;;6.07;;
4274;SDS011;2151;50.988;11.068;2023-01-01T15:56:04;118.97;;;5.40;;
4274;SDS011;2151;50.988;11.068;2023-01-01T15:58:35;119.60;;;5.57;;
4274;SDS011;2151;50.988;11.068;2023-01-01T16:01:17;119.27;;;5.77;;
4274;SDS011;2151;50.988;11.068;2023-01-01T16:03:46;119.20;;;5.13;;
4274;SDS011;2151;50.988;11.068;2023-01-01T16:06:14;119.67;;;5.63;;
4274;SDS011;2151;50.988;11.068;2023-01-01T16:08:42;119.40;;;5.67;;
4274;SDS011;2151;50.988;11.068;2023-01-01T16:11:09;120.40;;;6.17;;
4274;SDS011;2151;50.988;11.068;2023-01-01T16:13:35;119.50;;;5.80;;
4274;SDS011;2151;50.988;11.068;2023-01-01T16:16:02;120.40;;;6.17;;
4274;SDS011;2151;50.988;11.068;2023-01-01T16:18:35;119.33;;;5.47;;
4274;SDS011;2151;50.988;11.068;2023-01-01T16:21:03;119.37;;;5.43;;
4274;SDS011;2151;50.988;11.068;2023-01-01T16:23:30;119.17;;;5.77;;
4274;SDS011;2151;50.988;11.068;2023-01-01T16:25:57;118.87;;;5.83;;
4274;SDS011;2151;50.988;11.068;2023-01-01T16:28:23;119.27;;;5.50;;
4274;SDS011;2151;50.988;11.068;2023-01-01T16:30:50;119.07;;;5.50;;
4274;SDS011;2151;50.988;11.068;2023-01-01T16:33:20;119.17;;;5.77;;
4274;SDS011;2151;50.988;11.068;2023-01-01T16:35:48;120.13;;;5.90;;
4274;SDS011;2151;50.988;11.068;2023-01-01T16:38:14;119.70;;;5.43;;
4274;SDS011;2151;50.988;11.068;2023-01-01T16:40:41;119.90;;;5.53;;
4274;SDS011;2151;50.988;11.068;2023-01-01T16:43:15;119.27;;;5.80;;
4274;SDS011;2151;50.988;11.068;2023-01-01T16:45:43;120.20;;;5.67;;
4274;SDS011;2151;50.988;11.068;2023-01-01T16:48:10;119.90;;;5.77;;
4274;SDS011;2151;50.988;11.068;2023-01-01T16:50:36;120.10;;;5.70;;
4274;SDS011;2151;50.988;11.068;2023-01-01T16:53:03;120.20;;;5.93;;
4274;SDS011;2151;50.988;11.068;2023-01-01T16:55:29;119.27;;;5.83;;
4274;SDS011;2151;50.988;11.068;2023-01-01T16:57:55;120.17;;;5.80;;
4274;SDS011;2151;50.988;11.068;2023-01-01T17:00:42;120.40;;;6.17;;
4274;SDS011;2151;50.988;11.068;2023-01-01T17:03:09;120.03;;;5.97;;
4274;SDS011;2151;50.988;11.068;2023-01-01T17:05:35;119.93;;;5.63;;
4274;SDS011;2151;50.988;11.068;2023-01-01T17:08:09;119.80;;;5.90;;
4274;SDS011;2151;50.988;11.068;2023-01-01T17:10:36;119.47;;;5.90;;
4274;SDS011;2151;50.988;11.068;2023-01-01T17:13:03;120.20;;;5.83;;
4274;SDS011;2151;50.988;11.068;2023-01-01T17:15:30;119.27;;;5.70;;
4274;SDS011;2151;50.988;11.068;2023-01-01T17:17:57;120.33;;;6.23;;
4274;SDS011;2151;50.988;11.068;2023-01-01T17:20:24;119.23;;;5.63;;
4274;SDS011;2151;50.988;11.068;2023-01-01T17:22:51;120.07;;;5.67;;
4274;SDS011;2151;50.988;11.068;2023-01-01T17:25:17;120.50;;;6.17;;
4274;SDS011;2151;50.988;11.068;2023-01-01T17:27:44;120.10;;;5.70;;
4274;SDS011;2151;50.988;11.068;2023-01-01T17:30:11;119.90;;;5.67;;
4274;SDS011;2151;50.988;11.068;2023-01-01T17:32:38;119.07;;;5.57;;
4274;SDS011;2151;50.988;11.068;2023-01-01T17:35:05;120.00;;;5.63;;